Time;durP1;ratioP1;P1;durP2;ratioP2;P2;SDS_P1;SDS_P2;PMS_P1;PMS_P2;Temp;Humidity;BMP_temperature;BMP_pressure;BME280_temperature;BME280_humidity;BME280_pressure;Samples;Min_cycle;Max_cycle;Signal;HPM_P1;HPM_P2
2023/09/21 00:01:03;;;;;;;4.40;1.70;;;23.80;94.80;;;;;;4860390;29;20038;-84
2023/09/21 00:03:30;;;;;;;5.45;1.88;;;23.80;94.80;;;;;;4844499;29;20124;-85
2023/09/21 00:05:57;;;;;;;3.45;1.80;;;23.80;94.70;;;;;;4860858;29;20061;-85
2023/09/21 00:08:23;;;;;;;3.35;1.90;;;23.80;94.70;;;;;;4860815;29;20112;-85
2023/09/21 00:10:54;;;;;;;2.75;2.03;;;23.80;94.70;;;;;;4862010;29;20033;-78
2023/09/21 00:13:26;;;;;;;2.53;1.77;;;23.80;94.60;;;;;;4860551;29;20039;-78
2023/09/21 00:15:55;;;;;;;3.70;2.15;;;23.80;94.60;;;;;;4860160;29;20366;-78
2023/09/21 00:18:26;;;;;;;3.65;2.05;;;23.80;94.70;;;;;;4856801;29;20459;-78
2023/09/21 00:20:53;;;;;;;3.38;1.88;;;23.80;94.70;;;;;;4860437;29;20387;-77
2023/09/21 00:23:25;;;;;;;8.40;1.88;;;23.80;94.60;;;;;;4860857;29;20120;-76
2023/09/21 00:25:58;;;;;;;3.42;2.10;;;23.80;94.50;;;;;;4843704;29;20072;-76
2023/09/21 00:28:24;;;;;;;2.97;2.10;;;23.80;94.70;;;;;;4860564;29;20033;-77
2023/09/21 00:30:57;;;;;;;2.97;1.83;;;23.80;94.80;;;;;;4859901;29;20056;-79
2023/09/21 00:33:27;;;;;;;4.45;1.75;;;23.80;94.80;;;;;;4859966;29;20113;-79
2023/09/21 00:35:53;;;;;;;2.38;1.80;;;23.80;94.80;;;;;;4860857;29;20033;-79
2023/09/21 00:38:20;;;;;;;4.90;2.17;;;23.70;94.80;;;;;;4843257;29;20435;-78
2023/09/21 00:40:47;;;;;;;4.18;2.30;;;23.80;94.90;;;;;;4859625;29;20490;-78
2023/09/21 00:43:24;;;;;;;3.40;1.90;;;23.80;94.90;;;;;;4860597;29;20045;-78
2023/09/21 00:45:54;;;;;;;4.45;2.05;;;23.80;94.80;;;;;;4860744;29;20486;-78
2023/09/21 00:48:25;;;;;;;3.95;1.85;;;23.70;94.70;;;;;;4842363;29;20040;-77
2023/09/21 00:50:53;;;;;;;4.90;2.30;;;23.80;94.80;;;;;;4849067;29;20541;-78
2023/09/21 00:53:20;;;;;;;4.18;2.05;;;23.80;94.70;;;;;;4853977;29;20538;-78
2023/09/21 00:55:53;;;;;;;3.63;1.90;;;23.80;94.70;;;;;;4862883;29;20029;-77
2023/09/21 00:58:22;;;;;;;3.67;2.10;;;23.80;94.70;;;;;;4864564;29;20037;-77
2023/09/21 01:00:50;;;;;;;2.92;1.75;;;23.80;94.70;;;;;;4863360;29;20064;-77
2023/09/21 01:03:17;;;;;;;6.78;2.63;;;23.70;94.60;;;;;;4863197;29;20044;-78
2023/09/21 01:05:45;;;;;;;3.65;2.17;;;23.80;94.50;;;;;;4864005;29;20151;-78
2023/09/21 01:08:17;;;;;;;4.82;2.45;;;23.70;94.60;;;;;;4864219;29;20038;-78
2023/09/21 01:10:49;;;;;;;3.58;1.70;;;23.70;94.50;;;;;;4863667;29;20033;-77
2023/09/21 01:13:17;;;;;;;8.57;2.70;;;23.60;94.60;;;;;;4863450;29;20491;-77
2023/09/21 01:16:03;;;;;;;4.90;2.20;;;23.60;94.60;;;;;;4862912;29;20033;-77
2023/09/21 01:18:29;;;;;;;4.63;2.63;;;23.60;94.60;;;;;;4864157;29;20044;-77
2023/09/21 01:20:58;;;;;;;4.80;2.40;;;23.60;94.60;;;;;;4862756;29;20026;-77
2023/09/21 01:23:34;;;;;;;5.30;2.20;;;23.60;94.70;;;;;;4864078;29;20041;-77
2023/09/21 01:26:00;;;;;;;2.08;1.70;;;23.60;94.60;;;;;;4862530;29;20138;-77
2023/09/21 01:28:27;;;;;;;3.50;2.42;;;23.60;94.70;;;;;;4863521;29;20498;-77
2023/09/21 01:30:56;;;;;;;3.05;1.90;;;23.50;94.90;;;;;;4862271;29;20429;-77
2023/09/21 01:33:23;;;;;;;3.00;2.10;;;23.40;95.00;;;;;;4862045;29;20037;-77
2023/09/21 01:35:49;;;;;;;2.95;1.90;;;23.30;95.10;;;;;;4863289;29;20041;-77
2023/09/21 01:38:17;;;;;;;4.88;2.50;;;23.30;95.20;;;;;;4863545;29;20029;-77
2023/09/21 01:40:43;;;;;;;3.88;2.60;;;23.20;95.20;;;;;;4862849;29;20494;-77
2023/09/21 01:43:14;;;;;;;5.57;2.15;;;23.30;95.20;;;;;;4847052;29;20025;-77
2023/09/21 01:45:42;;;;;;;2.47;2.13;;;23.30;95.20;;;;;;4862568;29;20036;-77
2023/09/21 01:48:09;;;;;;;4.60;2.08;;;23.30;95.20;;;;;;4863463;29;20034;-77
2023/09/21 01:50:47;;;;;;;5.07;2.15;;;23.40;95.10;;;;;;4862610;29;20032;-77
2023/09/21 01:53:18;;;;;;;4.80;2.45;;;23.40;95.00;;;;;;4862770;29;20029;-77
2023/09/21 01:55:44;;;;;;;3.80;2.10;;;23.40;94.90;;;;;;4860908;29;20164;-77
2023/09/21 01:58:11;;;;;;;4.85;1.92;;;23.40;94.80;;;;;;4862675;29;20463;-77
2023/09/21 02:00:42;;;;;;;5.03;2.47;;;23.40;94.80;;;;;;4862021;29;20072;-77
2023/09/21 02:03:12;;;;;;;2.97;2.33;;;23.40;94.80;;;;;;4862343;29;20515;-77
2023/09/21 02:05:42;;;;;;;6.65;2.63;;;23.40;94.80;;;;;;4862162;29;20033;-78
2023/09/21 02:08:09;;;;;;;4.40;2.20;;;23.40;94.90;;;;;;4845721;29;20038;-77
2023/09/21 02:10:36;;;;;;;3.40;2.10;;;23.40;94.80;;;;;;4862268;29;20034;-76
2023/09/21 02:13:06;;;;;;;2.40;1.65;;;23.30;94.80;;;;;;4863154;29;20039;-77
2023/09/21 02:15:37;;;;;;;3.50;2.22;;;23.20;94.90;;;;;;4862608;29;20108;-77
2023/09/21 02:18:04;;;;;;;7.13;2.03;;;23.20;95.10;;;;;;4863205;29;20030;-77
2023/09/21 02:20:31;;;;;;;6.13;2.97;;;23.10;95.20;;;;;;4862121;29;20037;-77
2023/09/21 02:22:58;;;;;;;3.22;1.85;;;23.00;95.40;;;;;;4863204;29;20371;-77
2023/09/21 02:25:25;;;;;;;3.70;2.15;;;23.00;95.50;;;;;;4861680;29;20033;-78
2023/09/21 02:27:51;;;;;;;3.97;2.05;;;22.90;95.60;;;;;;4862580;29;20098;-78
2023/09/21 02:30:21;;;;;;;3.08;2.03;;;22.90;95.60;;;;;;4860902;29;20038;-77
2023/09/21 02:32:54;;;;;;;3.42;1.77;;;22.90;95.50;;;;;;4862705;29;20057;-77
2023/09/21 02:35:27;;;;;;;8.07;2.65;;;22.90;95.50;;;;;;4861980;29;20162;-78
2023/09/21 02:37:54;;;;;;;3.35;2.00;;;22.90;95.50;;;;;;4845891;29;20390;-79
2023/09/21 02:40:22;;;;;;;5.25;2.70;;;22.90;95.50;;;;;;4861433;29;20045;-79
2023/09/21 02:42:52;;;;;;;4.90;2.67;;;23.00;95.40;;;;;;4861980;29;20065;-79
2023/09/21 02:45:19;;;;;;;3.67;2.03;;;23.00;95.40;;;;;;4861815;29;20034;-79
2023/09/21 02:47:46;;;;;;;2.85;2.05;;;23.00;95.30;;;;;;4861843;29;20022;-79
2023/09/21 02:50:21;;;;;;;5.10;2.65;;;23.00;95.20;;;;;;4862308;29;20037;-79
2023/09/21 02:52:50;;;;;;;3.65;2.30;;;23.00;95.20;;;;;;4854410;29;20056;-77
2023/09/21 02:55:16;;;;;;;3.47;1.90;;;23.00;95.20;;;;;;4845307;29;20045;-77
2023/09/21 02:57:44;;;;;;;2.80;1.65;;;23.00;95.10;;;;;;4861171;29;20037;-77
2023/09/21 03:02:56;;;;;;;6.28;2.10;;;23.00;94.90;;;;;;4848044;29;20077;-77
2023/09/21 03:05:26;;;;;;;4.50;2.42;;;23.00;94.90;;;;;;4861505;29;20438;-77
2023/09/21 03:07:54;;;;;;;4.55;2.08;;;23.00;94.70;;;;;;4861806;29;20021;-77
2023/09/21 03:10:47;;;;;;;2.92;1.70;;;22.90;94.70;;;;;;4860985;29;20053;-79
2023/09/21 03:13:20;;;;;;;3.88;1.90;;;22.80;94.80;;;;;;4844106;29;20042;-78
2023/09/21 03:15:59;;;;;;;3.40;1.77;;;22.70;94.70;;;;;;4861957;29;20041;-79
2023/09/21 03:18:25;;;;;;;2.70;2.00;;;22.60;94.80;;;;;;4861470;29;20039;-79
2023/09/21 03:20:54;;;;;;;1.92;1.67;;;22.60;94.90;;;;;;4861032;29;20033;-78
2023/09/21 03:23:21;;;;;;;4.97;2.10;;;22.60;94.90;;;;;;4861494;29;20108;-77
2023/09/21 03:25:53;;;;;;;3.85;2.30;;;22.60;95.00;;;;;;4861651;29;20060;-77
2023/09/21 03:28:22;;;;;;;5.97;2.25;;;22.60;94.90;;;;;;4860766;29;20028;-78
2023/09/21 03:30:50;;;;;;;5.22;2.08;;;22.70;94.90;;;;;;4860907;29;20397;-78
2023/09/21 03:33:18;;;;;;;2.92;2.33;;;22.70;94.70;;;;;;4860195;29;20037;-78
2023/09/21 03:35:44;;;;;;;5.63;2.20;;;22.60;94.90;;;;;;4861648;29;20045;-78
2023/09/21 03:38:13;;;;;;;3.05;2.15;;;22.60;94.70;;;;;;4861110;29;20042;-77
2023/09/21 03:40:40;;;;;;;5.10;2.45;;;22.60;94.70;;;;;;4860258;29;20037;-77
2023/09/21 03:43:10;;;;;;;3.47;2.25;;;22.60;94.70;;;;;;4860602;29;20034;-80
2023/09/21 03:45:38;;;;;;;4.68;2.30;;;22.70;94.60;;;;;;4860563;29;20068;-79
2023/09/21 03:48:06;;;;;;;3.70;2.22;;;22.70;94.60;;;;;;4845205;29;20356;-80
2023/09/21 03:50:32;;;;;;;4.63;2.72;;;22.70;94.60;;;;;;4860442;29;20467;-81
2023/09/21 03:53:05;;;;;;;3.95;2.20;;;22.70;94.60;;;;;;4857042;29;20125;-80
2023/09/21 03:55:34;;;;;;;5.70;2.40;;;22.70;94.60;;;;;;4859147;29;20037;-80
2023/09/21 03:58:00;;;;;;;5.38;2.60;;;22.70;94.70;;;;;;4849546;29;20042;-80
2023/09/21 04:03:08;;;;;;;3.88;2.78;;;22.80;94.70;;;;;;4859259;29;20444;-82
2023/09/21 04:05:35;;;;;;;5.25;2.30;;;22.80;94.70;;;;;;4860595;29;20033;-80
2023/09/21 04:08:05;;;;;;;8.80;3.20;;;22.80;94.60;;;;;;4861110;29;20105;-81
2023/09/21 04:10:36;;;;;;;3.58;2.60;;;22.70;94.60;;;;;;4859204;29;20033;-80
2023/09/21 04:13:01;;;;;;;4.15;2.90;;;22.70;94.60;;;;;;4843771;29;20033;-86
2023/09/21 04:15:29;;;;;;;4.50;2.60;;;22.70;94.60;;;;;;4860927;29;20029;-85
2023/09/21 04:17:56;;;;;;;4.43;3.17;;;22.70;94.70;;;;;;4856163;29;20071;-85
2023/09/21 04:20:22;;;;;;;4.43;2.70;;;22.70;94.70;;;;;;4860686;29;20370;-85
2023/09/21 04:22:50;;;;;;;6.15;3.10;;;22.60;94.80;;;;;;4860470;29;20112;-85
2023/09/21 04:25:17;;;;;;;6.40;3.35;;;22.60;94.80;;;;;;4859539;29;20033;-86
2023/09/21 04:27:47;;;;;;;3.67;2.78;;;22.60;94.80;;;;;;4860157;29;20046;-88
2023/09/21 04:30:15;;;;;;;4.13;2.67;;;22.60;94.70;;;;;;4851396;29;20038;-84
2023/09/21 04:32:43;;;;;;;4.05;2.58;;;22.60;94.80;;;;;;4855006;29;20072;-84
2023/09/21 04:35:08;;;;;;;6.32;3.03;;;22.60;94.70;;;;;;4859508;29;20045;-85
2023/09/21 04:37:35;;;;;;;4.03;2.70;;;22.60;94.70;;;;;;4860782;29;20034;-85
2023/09/21 04:40:09;;;;;;;5.72;2.90;;;22.60;94.70;;;;;;4859628;29;20021;-86
2023/09/21 04:42:38;;;;;;;4.55;2.60;;;22.60;94.80;;;;;;4841123;29;20038;-85
2023/09/21 04:45:11;;;;;;;4.07;3.08;;;22.60;94.70;;;;;;4857834;29;20470;-87
2023/09/21 04:47:49;;;;;;;5.22;3.10;;;22.60;94.80;;;;;;4860640;29;20021;-83
2023/09/21 04:50:16;;;;;;;8.43;3.22;;;22.60;94.90;;;;;;4859370;29;20026;-84
2023/09/21 04:52:43;;;;;;;6.75;3.08;;;22.60;94.90;;;;;;4860690;29;20058;-85
2023/09/21 04:55:10;;;;;;;4.25;2.33;;;22.60;95.10;;;;;;4860404;29;20158;-85
2023/09/21 04:57:36;;;;;;;4.88;3.20;;;22.50;94.90;;;;;;4855355;29;20063;-85
2023/09/21 05:00:10;;;;;;;4.75;2.75;;;22.50;94.90;;;;;;4856574;29;20048;-85
2023/09/21 05:02:36;;;;;;;7.13;4.45;;;22.50;95.00;;;;;;4846704;29;20033;-84
2023/09/21 05:05:02;;;;;;;6.10;3.78;;;22.50;95.00;;;;;;4855763;29;20037;-84
2023/09/21 05:07:28;;;;;;;6.05;2.88;;;22.50;95.00;;;;;;4836613;29;20033;-83
2023/09/21 05:09:54;;;;;;;7.45;3.38;;;22.50;95.30;;;;;;4854787;29;20081;-83
2023/09/21 05:12:20;;;;;;;7.22;2.55;;;22.50;95.10;;;;;;4842121;29;20044;-83
2023/09/21 05:14:47;;;;;;;7.20;3.63;;;22.40;95.00;;;;;;4847171;29;20029;-86
2023/09/21 05:17:14;;;;;;;4.80;2.63;;;22.40;95.10;;;;;;4845230;29;20029;-88
2023/09/21 05:19:41;;;;;;;6.20;3.33;;;22.50;95.10;;;;;;4846790;29;20022;-88
2023/09/21 05:22:09;;;;;;;6.13;3.10;;;22.50;95.10;;;;;;4859725;29;20049;-86
2023/09/21 05:24:36;;;;;;;9.88;5.40;;;22.50;95.10;;;;;;4859763;29;20040;-88
2023/09/21 05:27:02;;;;;;;6.97;3.38;;;22.40;95.10;;;;;;4859474;29;20117;-87
2023/09/21 05:29:28;;;;;;;5.68;3.40;;;22.30;95.20;;;;;;4853572;29;20041;-87
2023/09/21 05:31:54;;;;;;;6.90;3.60;;;22.30;95.30;;;;;;4854738;29;20042;-88
2023/09/21 05:34:20;;;;;;;6.13;3.33;;;22.30;95.30;;;;;;4859626;29;20038;-88
2023/09/21 05:36:51;;;;;;;6.28;4.22;;;22.30;95.30;;;;;;4855532;29;20411;-89
2023/09/21 05:39:17;;;;;;;;;;;22.30;95.30;;;;;;4853408;29;20407;-90
2023/09/21 05:41:44;;;;;;;10.02;3.75;;;22.20;95.50;;;;;;4861631;29;19968;-89
2023/09/21 05:44:09;;;;;;;4.07;3.13;;;22.00;95.80;;;;;;4863174;29;20017;-89
2023/09/21 05:46:35;;;;;;;4.38;3.30;;;22.00;95.80;;;;;;4846630;29;20084;-87
2023/09/21 05:49:03;;;;;;;4.95;3.00;;;22.00;95.90;;;;;;4840560;29;20037;-85
2023/09/21 05:51:29;;;;;;;4.88;2.88;;;22.00;95.80;;;;;;4862471;29;20140;-83
2023/09/21 05:53:55;;;;;;;5.20;2.72;;;22.10;95.90;;;;;;4846829;29;20384;-84
2023/09/21 05:56:21;;;;;;;5.05;2.92;;;22.20;95.90;;;;;;4862780;29;20030;-84
2023/09/21 05:58:47;;;;;;;5.80;2.60;;;22.20;95.70;;;;;;4861237;29;20038;-84
2023/09/21 06:01:16;;;;;;;3.58;2.60;;;22.30;95.70;;;;;;4861939;29;20062;-84
2023/09/21 06:03:41;;;;;;;6.32;2.67;;;22.30;95.60;;;;;;4861780;29;20483;-86
2023/09/21 06:06:07;;;;;;;5.45;3.42;;;22.30;95.60;;;;;;4849213;29;20091;-85
2023/09/21 06:08:37;;;;;;;5.75;3.25;;;22.40;95.60;;;;;;4861476;29;20029;-86
2023/09/21 06:11:03;;;;;;;6.13;2.65;;;22.40;95.50;;;;;;4862929;29;20041;-84
2023/09/21 06:13:29;;;;;;;4.97;2.95;;;22.50;95.60;;;;;;4862751;29;20158;-85
2023/09/21 06:15:55;;;;;;;5.65;3.00;;;22.50;95.60;;;;;;4863224;29;20058;-85
2023/09/21 06:18:22;;;;;;;7.82;3.20;;;22.50;95.50;;;;;;4863116;29;20420;-84
2023/09/21 06:20:48;;;;;;;4.80;2.70;;;22.60;95.50;;;;;;4862411;29;20037;-85
2023/09/21 06:23:15;;;;;;;5.50;2.72;;;22.60;95.50;;;;;;4862729;29;20112;-84
2023/09/21 06:25:41;;;;;;;7.95;3.30;;;22.60;95.40;;;;;;4862433;29;20367;-83
2023/09/21 06:28:08;;;;;;;7.43;3.20;;;22.70;95.40;;;;;;4862641;29;20021;-84
2023/09/21 06:30:34;;;;;;;3.90;2.95;;;22.70;95.40;;;;;;4859471;29;20098;-84
2023/09/21 06:33:00;;;;;;;4.28;2.88;;;22.70;95.30;;;;;;4845448;29;20484;-84
2023/09/21 06:35:26;;;;;;;5.00;3.35;;;22.80;95.20;;;;;;4860849;29;20026;-88
2023/09/21 06:37:54;;;;;;;5.30;2.55;;;22.70;95.20;;;;;;4856180;29;20040;-87
2023/09/21 06:40:26;;;;;;;4.28;3.00;;;22.70;95.30;;;;;;4861055;29;20578;-86
2023/09/21 06:42:52;;;;;;;5.10;3.38;;;22.70;95.60;;;;;;4853374;29;20375;-86
2023/09/21 06:45:19;;;;;;;4.43;3.30;;;22.80;95.30;;;;;;4843842;29;20038;-86
2023/09/21 06:47:47;;;;;;;5.00;3.08;;;22.90;95.30;;;;;;4860943;29;20479;-83
2023/09/21 06:50:14;;;;;;;4.55;3.08;;;22.90;95.20;;;;;;4862258;29;20488;-86
2023/09/21 06:52:40;;;;;;;6.68;4.43;;;23.00;95.10;;;;;;4854824;29;20128;-86
2023/09/21 06:55:07;;;;;;;4.93;3.15;;;22.90;95.00;;;;;;4861138;29;20493;-85
2023/09/21 06:57:34;;;;;;;9.05;3.10;;;22.90;95.00;;;;;;4848779;29;20040;-85
2023/09/21 07:00:01;;;;;;;8.30;4.25;;;23.00;95.10;;;;;;4842367;29;20586;-85
2023/09/21 07:02:27;;;;;;;7.93;3.53;;;23.00;95.00;;;;;;4844353;29;20101;-86
2023/09/21 07:04:53;;;;;;;6.20;4.15;;;23.00;95.00;;;;;;4851744;29;20154;-86
2023/09/21 07:07:20;;;;;;;6.38;3.53;;;23.00;95.10;;;;;;4860593;29;20034;-86
2023/09/21 07:09:46;;;;;;;3.95;2.88;;;23.00;95.10;;;;;;4862737;29;20108;-86
2023/09/21 07:12:12;;;;;;;3.72;2.72;;;23.00;95.10;;;;;;4858089;29;20117;-86
2023/09/21 07:14:38;;;;;;;5.47;2.67;;;23.10;95.10;;;;;;4843755;29;20026;-86
2023/09/21 07:17:05;;;;;;;7.10;3.83;;;23.20;95.10;;;;;;4854321;29;20033;-86
2023/09/21 07:19:31;;;;;;;4.03;2.63;;;23.20;95.00;;;;;;4861881;29;20040;-86
2023/09/21 07:21:57;;;;;;;4.72;3.00;;;23.30;95.10;;;;;;4862025;29;20037;-85
2023/09/21 07:24:23;;;;;;;7.03;3.40;;;23.40;95.00;;;;;;4862169;29;20029;-86
2023/09/21 07:26:49;;;;;;;5.15;3.33;;;23.40;94.80;;;;;;4858359;29;20120;-86
2023/09/21 07:29:17;;;;;;;7.38;3.13;;;23.50;94.70;;;;;;4849658;29;20104;-86
2023/09/21 07:31:43;;;;;;;8.52;3.53;;;23.50;94.60;;;;;;4844199;29;20507;-87
2023/09/21 07:34:09;;;;;;;5.80;3.28;;;23.50;94.70;;;;;;4860279;29;20072;-86
2023/09/21 07:36:36;;;;;;;6.35;2.65;;;23.50;94.70;;;;;;4860978;29;20037;-87
2023/09/21 07:39:03;;;;;;;5.47;2.90;;;23.50;94.70;;;;;;4857841;29;20081;-86
2023/09/21 07:41:29;;;;;;;5.10;3.28;;;23.50;94.70;;;;;;4861460;29;20069;-86
2023/09/21 07:43:55;;;;;;;4.97;2.85;;;23.60;94.70;;;;;;4861415;29;20064;-86
2023/09/21 07:46:21;;;;;;;6.18;3.03;;;23.60;94.60;;;;;;4861148;29;20435;-87
2023/09/21 07:48:49;;;;;;;5.22;2.70;;;23.70;94.60;;;;;;4848379;29;20033;-86
2023/09/21 07:51:16;;;;;;;6.18;2.83;;;23.70;94.50;;;;;;4842547;29;20058;-86
2023/09/21 07:53:43;;;;;;;5.18;2.60;;;23.80;94.60;;;;;;4860524;29;20022;-86
2023/09/21 07:56:12;;;;;;;7.50;3.58;;;23.80;94.60;;;;;;4860914;29;20068;-85
2023/09/21 07:58:38;;;;;;;4.47;3.05;;;23.90;94.50;;;;;;4861107;29;20072;-85
2023/09/21 08:01:04;;;;;;;5.50;3.10;;;23.90;94.50;;;;;;4861090;29;20044;-86
2023/09/21 08:03:31;;;;;;;6.95;3.47;;;23.90;94.40;;;;;;4844550;29;20029;-85
2023/09/21 08:05:57;;;;;;;7.80;4.60;;;23.90;94.40;;;;;;4863338;29;20056;-86
2023/09/21 08:08:26;;;;;;;8.98;5.18;;;23.90;94.30;;;;;;4863427;29;20435;-89
2023/09/21 08:10:53;;;;;;;11.20;4.07;;;23.80;94.20;;;;;;4879659;29;20124;-86
2023/09/21 08:13:20;;;;;;;5.53;3.05;;;23.60;94.90;;;;;;4853007;29;20037;-86
2023/09/21 08:15:46;;;;;;;5.47;2.80;;;23.60;95.10;;;;;;4848980;29;20040;-86
2023/09/21 08:18:13;;;;;;;11.70;4.50;;;23.50;95.10;;;;;;4841414;29;20021;-86
2023/09/21 08:20:42;;;;;;;9.55;3.95;;;23.60;95.20;;;;;;4840943;29;20403;-87
2023/09/21 08:23:09;;;;;;;5.88;3.33;;;23.60;95.10;;;;;;4841413;29;20110;-86
2023/09/21 08:25:37;;;;;;;7.50;3.63;;;23.60;95.10;;;;;;4851203;29;20048;-87
2023/09/21 08:28:03;;;;;;;6.30;3.10;;;23.60;95.10;;;;;;4853043;29;20022;-86
2023/09/21 08:30:32;;;;;;;7.75;3.78;;;23.60;95.10;;;;;;4850027;29;20413;-86
2023/09/21 08:32:59;;;;;;;9.88;4.10;;;23.70;95.00;;;;;;4842216;29;20061;-87
2023/09/21 08:35:25;;;;;;;6.43;3.50;;;23.80;94.70;;;;;;4858736;29;20041;-87
2023/09/21 08:37:51;;;;;;;7.07;4.05;;;23.90;94.70;;;;;;4860569;29;20057;-87
2023/09/21 08:40:20;;;;;;;8.10;3.15;;;23.90;94.20;;;;;;4860218;29;20033;-87
2023/09/21 08:42:50;;;;;;;6.55;3.30;;;23.90;94.10;;;;;;4860147;29;20467;-87
2023/09/21 08:45:19;;;;;;;5.97;3.90;;;23.90;93.80;;;;;;4859984;29;20038;-87
2023/09/21 08:47:46;;;;;;;8.18;4.07;;;23.80;93.80;;;;;;4854356;29;20054;-87
2023/09/21 08:50:13;;;;;;;5.55;3.05;;;23.80;93.80;;;;;;4860623;29;20104;-87
2023/09/21 08:52:44;;;;;;;5.63;3.00;;;23.90;93.90;;;;;;4860003;29;20503;-86
2023/09/21 08:55:11;;;;;;;5.88;3.67;;;24.10;93.70;;;;;;4856204;29;20463;-85
2023/09/21 08:57:37;;;;;;;6.60;2.90;;;24.10;93.50;;;;;;4842252;29;20486;-86
2023/09/21 09:00:06;;;;;;;10.13;4.05;;;24.20;93.40;;;;;;4851899;29;20034;-86
2023/09/21 09:02:35;;;;;;;6.85;3.28;;;24.30;93.30;;;;;;4860588;29;20370;-86
2023/09/21 09:05:13;;;;;;;5.88;2.53;;;24.40;93.00;;;;;;4860641;29;20419;-87
2023/09/21 09:07:40;;;;;;;6.82;2.72;;;24.60;92.90;;;;;;4857220;29;20041;-86
2023/09/21 09:10:10;;;;;;;12.40;3.72;;;24.70;92.90;;;;;;4850779;29;20095;-86
2023/09/21 09:12:37;;;;;;;6.20;2.88;;;24.70;92.10;;;;;;4859753;29;20467;-87
2023/09/21 09:15:05;;;;;;;8.18;3.28;;;24.70;92.30;;;;;;4859142;29;20034;-87
2023/09/21 09:17:32;;;;;;;3.75;2.58;;;24.70;92.10;;;;;;4863720;29;20078;-86
2023/09/21 09:20:02;;;;;;;11.30;3.72;;;24.60;92.10;;;;;;4864148;29;20451;-86
2023/09/21 09:22:33;;;;;;;4.82;2.08;;;24.40;92.40;;;;;;4863677;29;20037;-86
2023/09/21 09:25:06;;;;;;;3.08;1.40;;;24.50;92.70;;;;;;4864352;29;20479;-86
2023/09/21 09:27:33;;;;;;;6.45;1.75;;;24.50;92.60;;;;;;4863811;29;20038;-86
2023/09/21 09:29:59;;;;;;;3.55;1.80;;;24.70;92.50;;;;;;4864109;29;20030;-86
2023/09/21 09:32:35;;;;;;;7.40;2.10;;;24.80;92.60;;;;;;4863920;29;20069;-86
2023/09/21 09:35:03;;;;;;;2.85;2.05;;;24.90;92.20;;;;;;4864255;29;20078;-86
2023/09/21 09:37:32;;;;;;;3.37;2.37;;;25.00;92.30;;;;;;4864057;29;20067;-86
2023/09/21 09:39:58;;;;;;;5.22;2.13;;;25.10;92.00;;;;;;4864162;29;20120;-87
2023/09/21 09:42:25;;;;;;;8.45;2.30;;;25.10;91.70;;;;;;4864194;29;20049;-86
2023/09/21 09:44:54;;;;;;;4.00;1.98;;;25.10;91.70;;;;;;4863936;29;20105;-86
2023/09/21 09:47:25;;;;;;;2.03;1.70;;;25.10;91.60;;;;;;4845781;29;20026;-86
2023/09/21 09:49:53;;;;;;;3.15;1.63;;;25.20;91.80;;;;;;4845508;29;20045;-87
2023/09/21 09:52:20;;;;;;;3.03;1.63;;;25.30;91.40;;;;;;4845375;29;20400;-86
2023/09/21 09:54:48;;;;;;;3.80;2.22;;;25.40;91.40;;;;;;4845360;29;20391;-86
2023/09/21 09:57:15;;;;;;;7.85;2.40;;;25.50;90.90;;;;;;4845151;29;20093;-86
2023/09/21 09:59:42;;;;;;;5.53;2.00;;;25.60;90.70;;;;;;4862337;29;20478;-86
2023/09/21 10:02:17;;;;;;;3.13;1.48;;;25.90;91.00;;;;;;4863559;29;20037;-86
2023/09/21 10:04:46;;;;;;;2.30;1.25;;;26.10;91.10;;;;;;4863707;29;20097;-86
2023/09/21 10:07:16;;;;;;;3.93;1.47;;;26.30;90.80;;;;;;4846701;29;20030;-86
2023/09/21 10:09:46;;;;;;;4.72;1.63;;;26.30;90.40;;;;;;4863285;29;20483;-86
2023/09/21 10:12:12;;;;;;;1.73;1.33;;;26.40;90.00;;;;;;4863274;29;20033;-86
2023/09/21 10:14:43;;;;;;;5.25;1.85;;;26.40;90.00;;;;;;4863402;29;20467;-86
2023/09/21 10:17:10;;;;;;;3.30;1.75;;;26.40;89.60;;;;;;4862813;29;20064;-86
2023/09/21 10:19:38;;;;;;;2.72;1.38;;;26.40;88.90;;;;;;4863287;29;20044;-86
2023/09/21 10:22:26;;;;;;;3.72;1.83;;;26.40;89.50;;;;;;4863104;29;20463;-86
2023/09/21 10:24:58;;;;;;;4.13;1.92;;;26.50;86.70;;;;;;4863245;29;20026;-86
2023/09/21 10:27:27;;;;;;;7.00;1.77;;;26.40;85.60;;;;;;4862126;29;20033;-86
2023/09/21 10:30:06;;;;;;;5.88;2.20;;;26.30;85.70;;;;;;4863005;29;20021;-86
2023/09/21 10:32:49;;;;;;;2.85;1.75;;;26.20;86.60;;;;;;4846728;29;20124;-85
2023/09/21 10:35:33;;;;;;;3.47;1.75;;;26.30;86.90;;;;;;4862805;29;20081;-86
2023/09/21 10:38:12;;;;;;;3.17;1.63;;;26.40;87.20;;;;;;4852819;29;20136;-84
2023/09/21 10:40:40;;;;;;;4.13;1.53;;;26.40;87.30;;;;;;4853864;29;20033;-87
2023/09/21 10:43:36;;;;;;;10.75;1.88;;;26.40;87.10;;;;;;4851460;29;20274;-86
2023/09/21 10:46:06;;;;;;;4.03;1.67;;;26.40;87.20;;;;;;4844385;29;20482;-86
2023/09/21 10:48:32;;;;;;;2.83;1.73;;;26.30;87.50;;;;;;4844084;29;20506;-87
2023/09/21 10:50:58;;;;;;;2.92;1.98;;;26.30;87.00;;;;;;4843936;29;20044;-86
2023/09/21 10:53:24;;;;;;;4.28;1.92;;;26.20;87.30;;;;;;4844268;29;20105;-87
2023/09/21 10:55:51;;;;;;;9.00;2.35;;;26.30;87.30;;;;;;4844301;29;20056;-86
2023/09/21 10:58:17;;;;;;;7.78;2.63;;;26.30;85.40;;;;;;4847662;29;20046;-87
2023/09/21 11:00:43;;;;;;;4.78;1.95;;;26.30;84.90;;;;;;4859662;29;20112;-86
2023/09/21 11:03:11;;;;;;;3.42;1.52;;;26.20;86.00;;;;;;4859729;29;20041;-87
2023/09/21 11:05:38;;;;;;;5.50;1.83;;;26.30;86.50;;;;;;4859850;29;20373;-86
2023/09/21 11:08:04;;;;;;;2.45;1.48;;;26.40;86.10;;;;;;4861010;29;20040;-86
2023/09/21 11:10:31;;;;;;;3.92;1.38;;;26.40;85.90;;;;;;4857342;29;20068;-86
2023/09/21 11:12:57;;;;;;;5.15;1.90;;;26.60;85.70;;;;;;4861594;29;20049;-87
2023/09/21 11:15:25;;;;;;;4.53;2.40;;;26.80;85.40;;;;;;4844990;29;20030;-86
2023/09/21 11:17:51;;;;;;;5.80;1.80;;;27.10;84.40;;;;;;4862386;29;20077;-86
2023/09/21 11:20:19;;;;;;;2.88;1.73;;;27.40;84.40;;;;;;4860544;29;20029;-86
2023/09/21 11:22:49;;;;;;;3.38;1.50;;;27.70;83.70;;;;;;4860766;29;20037;-87
2023/09/21 11:25:20;;;;;;;5.57;1.45;;;28.00;83.20;;;;;;4856177;29;20038;-87
2023/09/21 11:27:46;;;;;;;2.83;1.23;;;28.40;81.10;;;;;;4861894;29;20033;-87
2023/09/21 11:30:13;;;;;;;2.38;1.10;;;28.70;81.90;;;;;;4860756;29;20060;-87
2023/09/21 11:32:49;;;;;;;3.13;1.42;;;29.00;81.10;;;;;;4842085;29;20091;-85
2023/09/21 11:35:17;;;;;;;3.38;1.45;;;29.10;79.60;;;;;;4847175;29;20026;-84
2023/09/21 11:37:43;;;;;;;4.57;1.45;;;29.30;79.10;;;;;;4835855;29;20025;-85
2023/09/21 11:40:13;;;;;;;4.80;2.10;;;29.50;78.80;;;;;;4856715;29;20033;-85
2023/09/21 11:42:46;;;;;;;5.70;1.42;;;29.80;75.40;;;;;;4862047;29;20040;-86
2023/09/21 11:45:16;;;;;;;3.78;1.45;;;29.70;76.50;;;;;;4861309;29;20025;-86
2023/09/21 11:47:56;;;;;;;4.40;1.20;;;29.40;75.70;;;;;;4861425;29;20040;-89
2023/09/21 11:50:25;;;;;;;5.05;1.50;;;29.10;75.40;;;;;;4860226;29;20488;-88
2023/09/21 11:52:54;;;;;;;6.35;1.77;;;28.90;76.20;;;;;;4845336;29;20436;-88
2023/09/21 11:55:29;;;;;;;3.75;1.52;;;28.40;76.40;;;;;;4859991;29;20029;-87
2023/09/21 11:58:09;;;;;;;2.85;1.30;;;28.30;77.60;;;;;;4859362;29;20090;-88
2023/09/21 12:00:45;;;;;;;7.00;1.77;;;28.20;78.00;;;;;;4857974;29;20130;-87
2023/09/21 12:03:21;;;;;;;3.55;1.20;;;28.20;78.50;;;;;;4859217;29;20029;-87
2023/09/21 12:05:47;;;;;;;5.93;1.50;;;28.30;78.10;;;;;;4858507;29;20029;-88
2023/09/21 12:08:15;;;;;;;3.47;1.45;;;28.20;77.70;;;;;;4858232;29;20124;-86
2023/09/21 12:10:47;;;;;;;3.97;1.50;;;28.10;78.00;;;;;;4859197;29;20044;-84
2023/09/21 12:13:14;;;;;;;5.53;1.40;;;28.00;79.20;;;;;;4859494;29;20037;-86
2023/09/21 12:15:41;;;;;;;5.88;1.48;;;27.90;79.10;;;;;;4855568;29;20192;-86
2023/09/21 12:18:08;;;;;;;5.55;1.60;;;27.70;78.30;;;;;;4861638;29;20493;-86
2023/09/21 12:20:34;;;;;;;4.57;1.30;;;27.60;79.70;;;;;;4851007;29;20044;-87
2023/09/21 12:23:06;;;;;;;6.82;1.58;;;27.50;80.40;;;;;;4860917;29;20056;-87
2023/09/21 12:25:33;;;;;;;3.17;1.55;;;27.50;80.90;;;;;;4856110;29;20022;-86
2023/09/21 12:27:58;;;;;;;5.45;1.52;;;27.40;81.30;;;;;;4843122;29;20040;-89
2023/09/21 12:30:24;;;;;;;4.72;1.63;;;27.40;81.70;;;;;;4856110;29;20453;-89
2023/09/21 12:32:50;;;;;;;3.53;1.23;;;27.30;81.80;;;;;;4854220;29;20030;-86
2023/09/21 12:35:21;;;;;;;4.18;1.35;;;27.30;81.80;;;;;;4860197;29;20049;-85
2023/09/21 12:37:50;;;;;;;3.75;1.65;;;27.30;81.70;;;;;;4860109;29;20054;-86
2023/09/21 12:40:15;;;;;;;5.15;1.30;;;27.30;81.90;;;;;;4858002;29;20048;-86
2023/09/21 12:42:42;;;;;;;5.47;2.10;;;27.20;81.40;;;;;;4859882;29;20069;-85
2023/09/21 12:45:14;;;;;;;3.85;1.85;;;27.20;82.00;;;;;;4860527;29;20078;-86
2023/09/21 12:47:44;;;;;;;3.03;1.60;;;27.20;82.10;;;;;;4844202;29;20030;-85
2023/09/21 12:50:11;;;;;;;;;;;27.10;82.30;;;;;;4861283;29;20029;-87
2023/09/21 12:52:39;;;;;;;4.18;1.30;;;27.10;82.20;;;;;;4864042;29;20277;-81
2023/09/21 12:55:06;;;;;;;2.47;1.40;;;27.20;82.80;;;;;;4864233;29;20045;-86
2023/09/21 12:57:36;;;;;;;3.85;1.92;;;27.20;82.60;;;;;;4865411;29;20053;-86
2023/09/21 13:00:13;;;;;;;3.45;1.60;;;27.20;82.50;;;;;;4864542;29;20037;-86